sensor_id;sensor_type;location;lat;lon;timestamp;P1;durP1;ratioP1;P2;durP2;ratioP2
10902;SDS011;5504;47.312;11.060;2024-02-16T00:01:17;2.07;;;1.50;;
10902;SDS011;5504;47.312;11.060;2024-02-16T00:03:43;2.10;;;1.67;;
10902;SDS011;5504;47.312;11.060;2024-02-16T00:06:09;2.43;;;1.80;;
10902;SDS011;5504;47.312;11.060;2024-02-16T00:08:36;2.03;;;1.50;;
10902;SDS011;5504;47.312;11.060;2024-02-16T00:11:04;2.17;;;1.70;;
10902;SDS011;5504;47.312;11.060;2024-02-16T00:13:30;2.30;;;1.63;;
10902;SDS011;5504;47.312;11.060;2024-02-16T00:15:56;2.40;;;1.50;;
10902;SDS011;5504;47.312;11.060;2024-02-16T00:18:22;2.43;;;1.60;;
10902;SDS011;5504;47.312;11.060;2024-02-16T00:20:49;2.40;;;1.63;;
10902;SDS011;5504;47.312;11.060;2024-02-16T00:23:14;1.80;;;1.60;;
10902;SDS011;5504;47.312;11.060;2024-02-16T00:25:40;2.03;;;1.50;;
10902;SDS011;5504;47.312;11.060;2024-02-16T00:28:06;2.63;;;1.70;;
10902;SDS011;5504;47.312;11.060;2024-02-16T00:30:32;2.10;;;1.60;;
10902;SDS011;5504;47.312;11.060;2024-02-16T00:32:58;2.60;;;1.40;;
10902;SDS011;5504;47.312;11.060;2024-02-16T00:35:26;1.87;;;1.50;;
10902;SDS011;5504;47.312;11.060;2024-02-16T00:37:51;1.80;;;1.40;;
10902;SDS011;5504;47.312;11.060;2024-02-16T00:40:17;2.47;;;1.40;;
10902;SDS011;5504;47.312;11.060;2024-02-16T00:42:43;1.50;;;1.40;;
10902;SDS011;5504;47.312;11.060;2024-02-16T00:45:09;1.87;;;1.53;;
10902;SDS011;5504;47.312;11.060;2024-02-16T00:47:34;2.10;;;1.70;;
10902;SDS011;5504;47.312;11.060;2024-02-16T00:50:00;2.00;;;1.50;;
10902;SDS011;5504;47.312;11.060;2024-02-16T00:52:26;2.37;;;1.80;;
10902;SDS011;5504;47.312;11.060;2024-02-16T00:54:52;2.47;;;1.50;;
10902;SDS011;5504;47.312;11.060;2024-02-16T00:57:18;2.87;;;1.90;;
10902;SDS011;5504;47.312;11.060;2024-02-16T00:59:51;1.77;;;1.57;;
10902;SDS011;5504;47.312;11.060;2024-02-16T01:02:17;3.47;;;1.70;;
10902;SDS011;5504;47.312;11.060;2024-02-16T01:04:43;2.57;;;1.27;;
10902;SDS011;5504;47.312;11.060;2024-02-16T01:07:09;1.63;;;1.10;;
10902;SDS011;5504;47.312;11.060;2024-02-16T01:09:34;1.40;;;1.23;;
10902;SDS011;5504;47.312;11.060;2024-02-16T01:12:00;2.07;;;1.60;;
10902;SDS011;5504;47.312;11.060;2024-02-16T01:14:26;1.67;;;1.40;;
10902;SDS011;5504;47.312;11.060;2024-02-16T01:16:52;1.57;;;1.30;;
10902;SDS011;5504;47.312;11.060;2024-02-16T01:19:17;2.43;;;1.50;;
10902;SDS011;5504;47.312;11.060;2024-02-16T01:21:43;2.07;;;1.60;;
10902;SDS011;5504;47.312;11.060;2024-02-16T01:24:12;1.70;;;1.40;;
10902;SDS011;5504;47.312;11.060;2024-02-16T01:26:38;1.37;;;1.20;;
10902;SDS011;5504;47.312;11.060;2024-02-16T01:29:04;1.63;;;1.40;;
10902;SDS011;5504;47.312;11.060;2024-02-16T01:31:30;1.57;;;1.40;;
10902;SDS011;5504;47.312;11.060;2024-02-16T01:33:56;1.80;;;1.30;;
10902;SDS011;5504;47.312;11.060;2024-02-16T01:36:22;1.57;;;1.37;;
10902;SDS011;5504;47.312;11.060;2024-02-16T01:38:47;1.63;;;1.50;;
10902;SDS011;5504;47.312;11.060;2024-02-16T01:41:13;2.33;;;1.40;;
10902;SDS011;5504;47.312;11.060;2024-02-16T01:43:40;2.10;;;1.43;;
10902;SDS011;5504;47.312;11.060;2024-02-16T01:46:05;2.47;;;1.43;;
10902;SDS011;5504;47.312;11.060;2024-02-16T01:48:32;1.60;;;1.37;;
10902;SDS011;5504;47.312;11.060;2024-02-16T01:50:58;1.33;;;1.20;;
10902;SDS011;5504;47.312;11.060;2024-02-16T01:53:26;2.53;;;1.40;;
10902;SDS011;5504;47.312;11.060;2024-02-16T01:55:52;1.60;;;1.40;;
10902;SDS011;5504;47.312;11.060;2024-02-16T01:58:18;1.90;;;1.50;;
10902;SDS011;5504;47.312;11.060;2024-02-16T02:00:44;1.83;;;1.50;;
10902;SDS011;5504;47.312;11.060;2024-02-16T02:03:09;1.40;;;1.17;;
10902;SDS011;5504;47.312;11.060;2024-02-16T02:05:43;2.43;;;1.17;;
10902;SDS011;5504;47.312;11.060;2024-02-16T02:08:12;1.73;;;1.30;;
10902;SDS011;5504;47.312;11.060;2024-02-16T02:10:39;2.70;;;1.60;;
10902;SDS011;5504;47.312;11.060;2024-02-16T02:13:05;1.60;;;1.30;;
10902;SDS011;5504;47.312;11.060;2024-02-16T02:15:30;2.90;;;1.50;;
10902;SDS011;5504;47.312;11.060;2024-02-16T02:17:56;1.90;;;1.30;;
10902;SDS011;5504;47.312;11.060;2024-02-16T02:20:25;2.23;;;1.53;;
10902;SDS011;5504;47.312;11.060;2024-02-16T02:22:50;1.80;;;1.50;;
10902;SDS011;5504;47.312;11.060;2024-02-16T02:25:16;1.80;;;1.50;;
10902;SDS011;5504;47.312;11.060;2024-02-16T02:27:42;1.80;;;1.40;;
10902;SDS011;5504;47.312;11.060;2024-02-16T02:30:08;1.60;;;1.40;;
10902;SDS011;5504;47.312;11.060;2024-02-16T02:32:34;2.23;;;1.43;;
10902;SDS011;5504;47.312;11.060;2024-02-16T02:35:01;1.83;;;1.47;;
10902;SDS011;5504;47.312;11.060;2024-02-16T02:37:27;1.83;;;1.60;;
10902;SDS011;5504;47.312;11.060;2024-02-16T02:39:52;2.20;;;1.60;;
10902;SDS011;5504;47.312;11.060;2024-02-16T02:42:18;2.30;;;1.60;;
10902;SDS011;5504;47.312;11.060;2024-02-16T02:44:44;2.50;;;1.60;;
10902;SDS011;5504;47.312;11.060;2024-02-16T02:47:15;2.97;;;1.77;;
10902;SDS011;5504;47.312;11.060;2024-02-16T02:49:42;2.37;;;1.70;;
10902;SDS011;5504;47.312;11.060;2024-02-16T02:52:08;2.47;;;1.47;;
10902;SDS011;5504;47.312;11.060;2024-02-16T02:54:34;2.13;;;1.77;;
10902;SDS011;5504;47.312;11.060;2024-02-16T02:57:00;2.13;;;1.60;;
10902;SDS011;5504;47.312;11.060;2024-02-16T02:59:27;1.97;;;1.60;;
10902;SDS011;5504;47.312;11.060;2024-02-16T03:01:53;2.33;;;1.67;;
10902;SDS011;5504;47.312;11.060;2024-02-16T03:04:18;3.13;;;1.77;;
10902;SDS011;5504;47.312;11.060;2024-02-16T03:06:44;1.77;;;1.30;;
10902;SDS011;5504;47.312;11.060;2024-02-16T03:09:13;2.30;;;1.50;;
10902;SDS011;5504;47.312;11.060;2024-02-16T03:11:39;1.63;;;1.50;;
10902;SDS011;5504;47.312;11.060;2024-02-16T03:14:05;1.50;;;1.40;;
10902;SDS011;5504;47.312;11.060;2024-02-16T03:16:31;2.10;;;1.60;;
10902;SDS011;5504;47.312;11.060;2024-02-16T03:18:57;3.33;;;1.80;;
10902;SDS011;5504;47.312;11.060;2024-02-16T03:21:23;2.13;;;1.50;;
10902;SDS011;5504;47.312;11.060;2024-02-16T03:23:49;1.93;;;1.60;;
10902;SDS011;5504;47.312;11.060;2024-02-16T03:26:15;2.23;;;1.70;;
10902;SDS011;5504;47.312;11.060;2024-02-16T03:28:43;2.33;;;1.40;;
10902;SDS011;5504;47.312;11.060;2024-02-16T03:31:19;1.97;;;1.43;;
10902;SDS011;5504;47.312;11.060;2024-02-16T03:33:46;2.07;;;1.43;;
10902;SDS011;5504;47.312;11.060;2024-02-16T03:36:12;2.40;;;1.70;;
10902;SDS011;5504;47.312;11.060;2024-02-16T03:38:42;2.53;;;1.60;;
10902;SDS011;5504;47.312;11.060;2024-02-16T03:41:17;1.60;;;1.50;;
10902;SDS011;5504;47.312;11.060;2024-02-16T03:43:44;2.53;;;1.80;;
10902;SDS011;5504;47.312;11.060;2024-02-16T03:46:10;1.90;;;1.47;;
10902;SDS011;5504;47.312;11.060;2024-02-16T03:48:36;2.07;;;1.40;;
10902;SDS011;5504;47.312;11.060;2024-02-16T03:51:02;2.30;;;1.50;;
10902;SDS011;5504;47.312;11.060;2024-02-16T03:53:31;2.67;;;1.80;;
10902;SDS011;5504;47.312;11.060;2024-02-16T03:55:56;1.70;;;1.50;;
10902;SDS011;5504;47.312;11.060;2024-02-16T03:58:22;1.97;;;1.40;;
10902;SDS011;5504;47.312;11.060;2024-02-16T04:00:49;1.93;;;1.50;;
10902;SDS011;5504;47.312;11.060;2024-02-16T04:03:15;1.77;;;1.40;;
10902;SDS011;5504;47.312;11.060;2024-02-16T04:05:41;3.53;;;1.63;;
10902;SDS011;5504;47.312;11.060;2024-02-16T04:08:07;1.93;;;1.50;;
10902;SDS011;5504;47.312;11.060;2024-02-16T04:10:33;1.97;;;1.30;;
10902;SDS011;5504;47.312;11.060;2024-02-16T04:12:59;1.30;;;1.20;;
10902;SDS011;5504;47.312;11.060;2024-02-16T04:15:25;2.20;;;1.40;;
10902;SDS011;5504;47.312;11.060;2024-02-16T04:17:51;2.40;;;1.50;;
10902;SDS011;5504;47.312;11.060;2024-02-16T04:20:18;1.60;;;1.30;;
10902;SDS011;5504;47.312;11.060;2024-02-16T04:22:44;1.77;;;1.50;;
10902;SDS011;5504;47.312;11.060;2024-02-16T04:25:10;1.87;;;1.40;;
10902;SDS011;5504;47.312;11.060;2024-02-16T04:27:36;1.77;;;1.50;;
10902;SDS011;5504;47.312;11.060;2024-02-16T04:30:03;1.67;;;1.40;;
10902;SDS011;5504;47.312;11.060;2024-02-16T04:32:30;1.67;;;1.10;;
10902;SDS011;5504;47.312;11.060;2024-02-16T04:34:56;1.97;;;1.30;;
10902;SDS011;5504;47.312;11.060;2024-02-16T04:37:22;2.63;;;1.40;;
10902;SDS011;5504;47.312;11.060;2024-02-16T04:39:48;1.53;;;1.23;;
10902;SDS011;5504;47.312;11.060;2024-02-16T04:42:14;1.80;;;1.40;;
10902;SDS011;5504;47.312;11.060;2024-02-16T04:44:41;2.60;;;1.40;;
10902;SDS011;5504;47.312;11.060;2024-02-16T04:47:07;1.90;;;1.27;;
10902;SDS011;5504;47.312;11.060;2024-02-16T04:49:34;1.70;;;1.40;;
10902;SDS011;5504;47.312;11.060;2024-02-16T04:52:00;1.43;;;1.30;;
10902;SDS011;5504;47.312;11.060;2024-02-16T04:54:26;2.57;;;1.50;;
10902;SDS011;5504;47.312;11.060;2024-02-16T04:56:52;1.73;;;1.40;;
10902;SDS011;5504;47.312;11.060;2024-02-16T04:59:18;1.50;;;1.20;;
10902;SDS011;5504;47.312;11.060;2024-02-16T05:01:44;1.50;;;1.10;;
10902;SDS011;5504;47.312;11.060;2024-02-16T05:04:13;2.60;;;1.30;;
10902;SDS011;5504;47.312;11.060;2024-02-16T05:06:42;2.60;;;1.20;;
10902;SDS011;5504;47.312;11.060;2024-02-16T05:09:16;2.07;;;1.23;;
10902;SDS011;5504;47.312;11.060;2024-02-16T05:11:42;3.03;;;2.10;;
10902;SDS011;5504;47.312;11.060;2024-02-16T05:14:12;1.90;;;1.50;;
10902;SDS011;5504;47.312;11.060;2024-02-16T05:16:42;1.87;;;1.30;;
10902;SDS011;5504;47.312;11.060;2024-02-16T05:19:09;1.23;;;1.07;;
10902;SDS011;5504;47.312;11.060;2024-02-16T05:21:34;2.77;;;1.40;;
10902;SDS011;5504;47.312;11.060;2024-02-16T05:24:00;2.10;;;1.40;;
10902;SDS011;5504;47.312;11.060;2024-02-16T05:26:27;2.30;;;1.30;;
10902;SDS011;5504;47.312;11.060;2024-02-16T05:28:52;1.33;;;1.20;;
10902;SDS011;5504;47.312;11.060;2024-02-16T05:31:18;1.40;;;1.20;;
10902;SDS011;5504;47.312;11.060;2024-02-16T05:33:47;2.67;;;1.40;;
10902;SDS011;5504;47.312;11.060;2024-02-16T05:36:17;2.40;;;1.50;;
10902;SDS011;5504;47.312;11.060;2024-02-16T05:38:45;1.23;;;1.13;;
10902;SDS011;5504;47.312;11.060;2024-02-16T05:41:15;1.63;;;1.40;;
10902;SDS011;5504;47.312;11.060;2024-02-16T05:43:43;1.53;;;1.30;;
10902;SDS011;5504;47.312;11.060;2024-02-16T05:46:15;1.40;;;1.30;;
10902;SDS011;5504;47.312;11.060;2024-02-16T05:48:42;1.70;;;1.40;;
10902;SDS011;5504;47.312;11.060;2024-02-16T05:51:08;2.00;;;1.40;;
10902;SDS011;5504;47.312;11.060;2024-02-16T05:53:34;2.80;;;1.60;;
10902;SDS011;5504;47.312;11.060;2024-02-16T05:56:00;2.67;;;1.60;;
10902;SDS011;5504;47.312;11.060;2024-02-16T05:58:26;1.97;;;1.30;;
10902;SDS011;5504;47.312;11.060;2024-02-16T06:00:53;2.10;;;1.53;;
10902;SDS011;5504;47.312;11.060;2024-02-16T06:03:19;2.47;;;1.50;;
10902;SDS011;5504;47.312;11.060;2024-02-16T06:05:45;1.73;;;1.53;;
10902;SDS011;5504;47.312;11.060;2024-02-16T06:08:11;1.70;;;1.30;;
10902;SDS011;5504;47.312;11.060;2024-02-16T06:10:38;2.30;;;1.53;;
10902;SDS011;5504;47.312;11.060;2024-02-16T06:13:04;1.90;;;1.30;;
10902;SDS011;5504;47.312;11.060;2024-02-16T06:15:31;2.03;;;1.40;;
10902;SDS011;5504;47.312;11.060;2024-02-16T06:17:59;1.80;;;1.30;;
10902;SDS011;5504;47.312;11.060;2024-02-16T06:20:27;1.93;;;1.47;;
10902;SDS011;5504;47.312;11.060;2024-02-16T06:22:53;1.97;;;1.40;;
10902;SDS011;5504;47.312;11.060;2024-02-16T06:25:19;2.53;;;1.40;;
10902;SDS011;5504;47.312;11.060;2024-02-16T06:27:45;2.13;;;1.40;;
10902;SDS011;5504;47.312;11.060;2024-02-16T06:30:11;2.00;;;1.30;;
10902;SDS011;5504;47.312;11.060;2024-02-16T06:32:41;1.23;;;1.10;;
10902;SDS011;5504;47.312;11.060;2024-02-16T06:35:07;1.47;;;1.10;;
10902;SDS011;5504;47.312;11.060;2024-02-16T06:37:33;1.50;;;1.13;;
10902;SDS011;5504;47.312;11.060;2024-02-16T06:39:59;1.20;;;1.10;;
10902;SDS011;5504;47.312;11.060;2024-02-16T06:42:25;4.07;;;1.83;;
10902;SDS011;5504;47.312;11.060;2024-02-16T06:44:51;2.17;;;1.30;;
10902;SDS011;5504;47.312;11.060;2024-02-16T06:47:17;2.93;;;1.27;;
10902;SDS011;5504;47.312;11.060;2024-02-16T06:49:43;3.60;;;1.80;;
10902;SDS011;5504;47.312;11.060;2024-02-16T06:52:11;2.97;;;1.80;;
10902;SDS011;5504;47.312;11.060;2024-02-16T06:54:37;2.70;;;1.70;;
10902;SDS011;5504;47.312;11.060;2024-02-16T06:57:03;3.20;;;1.57;;
10902;SDS011;5504;47.312;11.060;2024-02-16T06:59:29;2.87;;;1.50;;
10902;SDS011;5504;47.312;11.060;2024-02-16T07:01:55;2.67;;;1.57;;
10902;SDS011;5504;47.312;11.060;2024-02-16T07:04:20;3.50;;;1.63;;
10902;SDS011;5504;47.312;11.060;2024-02-16T07:06:46;2.87;;;1.53;;
10902;SDS011;5504;47.312;11.060;2024-02-16T07:09:12;2.87;;;1.70;;
10902;SDS011;5504;47.312;11.060;2024-02-16T07:11:41;4.33;;;1.67;;
10902;SDS011;5504;47.312;11.060;2024-02-16T07:14:07;3.27;;;1.90;;
10902;SDS011;5504;47.312;11.060;2024-02-16T07:16:33;3.63;;;2.03;;
10902;SDS011;5504;47.312;11.060;2024-02-16T07:18:59;4.87;;;2.10;;
10902;SDS011;5504;47.312;11.060;2024-02-16T07:21:25;7.37;;;2.27;;
10902;SDS011;5504;47.312;11.060;2024-02-16T07:23:52;4.17;;;1.97;;
10902;SDS011;5504;47.312;11.060;2024-02-16T07:26:18;2.93;;;2.00;;
10902;SDS011;5504;47.312;11.060;2024-02-16T07:28:44;4.67;;;2.00;;
10902;SDS011;5504;47.312;11.060;2024-02-16T07:31:10;2.83;;;1.80;;
10902;SDS011;5504;47.312;11.060;2024-02-16T07:33:36;3.40;;;2.00;;
10902;SDS011;5504;47.312;11.060;2024-02-16T07:36:02;2.23;;;1.70;;
10902;SDS011;5504;47.312;11.060;2024-02-16T07:38:29;3.37;;;2.00;;
10902;SDS011;5504;47.312;11.060;2024-02-16T07:40:55;3.83;;;2.13;;
10902;SDS011;5504;47.312;11.060;2024-02-16T07:43:20;5.70;;;1.90;;
10902;SDS011;5504;47.312;11.060;2024-02-16T07:45:49;3.30;;;1.70;;
10902;SDS011;5504;47.312;11.060;2024-02-16T07:48:15;8.63;;;3.67;;
10902;SDS011;5504;47.312;11.060;2024-02-16T07:50:41;4.20;;;1.90;;
10902;SDS011;5504;47.312;11.060;2024-02-16T07:53:07;3.67;;;2.30;;
10902;SDS011;5504;47.312;11.060;2024-02-16T07:55:34;2.87;;;2.20;;
10902;SDS011;5504;47.312;11.060;2024-02-16T07:58:00;3.40;;;2.53;;
10902;SDS011;5504;47.312;11.060;2024-02-16T08:00:26;3.67;;;2.13;;
10902;SDS011;5504;47.312;11.060;2024-02-16T08:02:53;8.23;;;3.53;;
10902;SDS011;5504;47.312;11.060;2024-02-16T08:05:18;11.07;;;4.77;;
10902;SDS011;5504;47.312;11.060;2024-02-16T08:07:46;12.67;;;7.97;;
10902;SDS011;5504;47.312;11.060;2024-02-16T08:10:12;11.43;;;6.93;;
10902;SDS011;5504;47.312;11.060;2024-02-16T08:12:38;12.47;;;7.17;;
10902;SDS011;5504;47.312;11.060;2024-02-16T08:15:04;10.83;;;6.77;;
10902;SDS011;5504;47.312;11.060;2024-02-16T08:17:35;10.50;;;6.87;;
10902;SDS011;5504;47.312;11.060;2024-02-16T08:20:01;15.43;;;9.70;;
10902;SDS011;5504;47.312;11.060;2024-02-16T08:22:27;10.00;;;6.70;;
10902;SDS011;5504;47.312;11.060;2024-02-16T08:24:53;13.87;;;9.63;;
10902;SDS011;5504;47.312;11.060;2024-02-16T08:27:19;10.03;;;7.43;;
10902;SDS011;5504;47.312;11.060;2024-02-16T08:29:45;10.20;;;7.03;;
10902;SDS011;5504;47.312;11.060;2024-02-16T08:32:11;8.53;;;7.00;;
10902;SDS011;5504;47.312;11.060;2024-02-16T08:34:37;9.00;;;5.90;;
10902;SDS011;5504;47.312;11.060;2024-02-16T08:37:03;7.30;;;4.40;;
10902;SDS011;5504;47.312;11.060;2024-02-16T08:39:30;7.63;;;4.40;;
10902;SDS011;5504;47.312;11.060;2024-02-16T08:41:56;4.97;;;3.73;;
10902;SDS011;5504;47.312;11.060;2024-02-16T08:44:23;7.73;;;4.20;;
10902;SDS011;5504;47.312;11.060;2024-02-16T08:46:49;11.67;;;6.07;;
10902;SDS011;5504;47.312;11.060;2024-02-16T08:49:15;10.17;;;5.23;;
10902;SDS011;5504;47.312;11.060;2024-02-16T08:51:42;6.50;;;3.57;;
10902;SDS011;5504;47.312;11.060;2024-02-16T08:54:08;3.77;;;3.10;;
10902;SDS011;5504;47.312;11.060;2024-02-16T08:56:34;8.37;;;4.73;;
10902;SDS011;5504;47.312;11.060;2024-02-16T08:59:03;7.70;;;4.20;;
10902;SDS011;5504;47.312;11.060;2024-02-16T09:01:32;5.70;;;3.20;;
10902;SDS011;5504;47.312;11.060;2024-02-16T09:04:02;5.87;;;2.80;;
10902;SDS011;5504;47.312;11.060;2024-02-16T09:06:28;4.40;;;2.60;;
10902;SDS011;5504;47.312;11.060;2024-02-16T09:08:54;5.50;;;2.80;;
10902;SDS011;5504;47.312;11.060;2024-02-16T09:11:20;3.97;;;2.50;;
10902;SDS011;5504;47.312;11.060;2024-02-16T09:13:47;7.17;;;4.23;;
10902;SDS011;5504;47.312;11.060;2024-02-16T09:16:12;5.33;;;3.27;;
10902;SDS011;5504;47.312;11.060;2024-02-16T09:18:38;5.77;;;3.60;;
10902;SDS011;5504;47.312;11.060;2024-02-16T09:21:04;6.37;;;4.00;;
10902;SDS011;5504;47.312;11.060;2024-02-16T09:23:31;8.47;;;5.27;;
10902;SDS011;5504;47.312;11.060;2024-02-16T09:25:58;5.23;;;3.20;;
10902;SDS011;5504;47.312;11.060;2024-02-16T09:28:27;5.20;;;3.10;;
10902;SDS011;5504;47.312;11.060;2024-02-16T09:30:57;4.13;;;2.87;;
10902;SDS011;5504;47.312;11.060;2024-02-16T09:33:23;4.40;;;2.63;;
10902;SDS011;5504;47.312;11.060;2024-02-16T09:35:52;4.97;;;3.67;;
10902;SDS011;5504;47.312;11.060;2024-02-16T09:38:18;5.97;;;4.10;;
10902;SDS011;5504;47.312;11.060;2024-02-16T09:40:45;6.13;;;3.23;;
10902;SDS011;5504;47.312;11.060;2024-02-16T09:43:20;4.47;;;3.10;;
10902;SDS011;5504;47.312;11.060;2024-02-16T09:45:57;3.53;;;2.50;;
10902;SDS011;5504;47.312;11.060;2024-02-16T09:48:25;4.20;;;2.90;;
10902;SDS011;5504;47.312;11.060;2024-02-16T09:50:56;4.60;;;2.20;;
10902;SDS011;5504;47.312;11.060;2024-02-16T09:53:25;3.60;;;2.50;;
10902;SDS011;5504;47.312;11.060;2024-02-16T09:55:54;6.77;;;3.37;;
10902;SDS011;5504;47.312;11.060;2024-02-16T09:58:21;6.40;;;2.20;;
10902;SDS011;5504;47.312;11.060;2024-02-16T10:00:51;3.50;;;2.80;;
10902;SDS011;5504;47.312;11.060;2024-02-16T10:03:25;4.38;;;2.40;;
10902;SDS011;5504;47.312;11.060;2024-02-16T10:05:53;4.07;;;2.63;;
10902;SDS011;5504;47.312;11.060;2024-02-16T10:08:46;2.15;;;1.85;;
10902;SDS011;5504;47.312;11.060;2024-02-16T10:11:14;3.95;;;2.20;;
10902;SDS011;5504;47.312;11.060;2024-02-16T10:13:40;2.97;;;1.95;;
10902;SDS011;5504;47.312;11.060;2024-02-16T10:16:10;7.63;;;2.78;;
10902;SDS011;5504;47.312;11.060;2024-02-16T10:18:39;3.10;;;1.95;;
10902;SDS011;5504;47.312;11.060;2024-02-16T10:21:05;3.30;;;2.10;;
10902;SDS011;5504;47.312;11.060;2024-02-16T10:23:32;2.60;;;1.88;;
10902;SDS011;5504;47.312;11.060;2024-02-16T10:25:58;3.65;;;2.15;;
10902;SDS011;5504;47.312;11.060;2024-02-16T10:28:24;3.05;;;1.30;;
10902;SDS011;5504;47.312;11.060;2024-02-16T10:30:57;1.88;;;1.40;;
10902;SDS011;5504;47.312;11.060;2024-02-16T10:33:29;2.88;;;1.50;;
10902;SDS011;5504;47.312;11.060;2024-02-16T10:35:57;2.65;;;1.10;;
10902;SDS011;5504;47.312;11.060;2024-02-16T10:38:24;1.70;;;1.20;;
10902;SDS011;5504;47.312;11.060;2024-02-16T10:40:52;1.77;;;1.20;;
10902;SDS011;5504;47.312;11.060;2024-02-16T10:43:18;1.55;;;1.20;;
10902;SDS011;5504;47.312;11.060;2024-02-16T10:45:46;1.33;;;1.10;;
10902;SDS011;5504;47.312;11.060;2024-02-16T10:48:17;1.90;;;1.10;;
10902;SDS011;5504;47.312;11.060;2024-02-16T10:50:43;1.52;;;1.17;;
10902;SDS011;5504;47.312;11.060;2024-02-16T10:55:47;2.40;;;1.20;;
10902;SDS011;5504;47.312;11.060;2024-02-16T10:58:13;0.82;;;0.82;;
10902;SDS011;5504;47.312;11.060;2024-02-16T11:00:51;2.75;;;1.30;;
10902;SDS011;5504;47.312;11.060;2024-02-16T11:03:20;1.40;;;1.10;;
10902;SDS011;5504;47.312;11.060;2024-02-16T11:05:50;2.28;;;1.10;;
10902;SDS011;5504;47.312;11.060;2024-02-16T11:08:17;2.78;;;1.38;;
10902;SDS011;5504;47.312;11.060;2024-02-16T11:13:47;1.23;;;1.02;;
10902;SDS011;5504;47.312;11.060;2024-02-16T11:16:13;1.35;;;1.10;;
10902;SDS011;5504;47.312;11.060;2024-02-16T11:18:39;1.40;;;1.00;;
10902;SDS011;5504;47.312;11.060;2024-02-16T11:21:11;2.22;;;1.30;;
10902;SDS011;5504;47.312;11.060;2024-02-16T11:23:37;1.20;;;1.10;;
10902;SDS011;5504;47.312;11.060;2024-02-16T11:26:08;2.25;;;0.80;;
10902;SDS011;5504;47.312;11.060;2024-02-16T11:28:39;1.23;;;0.90;;
10902;SDS011;5504;47.312;11.060;2024-02-16T11:31:06;0.77;;;0.77;;
10902;SDS011;5504;47.312;11.060;2024-02-16T11:33:32;1.63;;;1.00;;
10902;SDS011;5504;47.312;11.060;2024-02-16T11:35:59;1.80;;;1.00;;
10902;SDS011;5504;47.312;11.060;2024-02-16T11:38:26;1.23;;;0.90;;
10902;SDS011;5504;47.312;11.060;2024-02-16T11:40:53;2.17;;;0.80;;
10902;SDS011;5504;47.312;11.060;2024-02-16T11:43:23;2.95;;;1.00;;
10902;SDS011;5504;47.312;11.060;2024-02-16T11:45:49;1.10;;;0.82;;
10902;SDS011;5504;47.312;11.060;2024-02-16T11:48:22;0.82;;;0.82;;
10902;SDS011;5504;47.312;11.060;2024-02-16T11:51:02;1.20;;;0.95;;
10902;SDS011;5504;47.312;11.060;2024-02-16T11:53:29;1.00;;;0.90;;
10902;SDS011;5504;47.312;11.060;2024-02-16T11:55:55;1.00;;;0.77;;
10902;SDS011;5504;47.312;11.060;2024-02-16T11:58:21;1.65;;;0.90;;
10902;SDS011;5504;47.312;11.060;2024-02-16T12:00:48;0.82;;;0.80;;
10902;SDS011;5504;47.312;11.060;2024-02-16T12:03:21;0.90;;;0.80;;
10902;SDS011;5504;47.312;11.060;2024-02-16T12:08:21;0.95;;;0.70;;
10902;SDS011;5504;47.312;11.060;2024-02-16T12:10:48;0.70;;;0.70;;
10902;SDS011;5504;47.312;11.060;2024-02-16T12:13:16;1.35;;;0.98;;
10902;SDS011;5504;47.312;11.060;2024-02-16T12:15:46;0.93;;;0.80;;
10902;SDS011;5504;47.312;11.060;2024-02-16T12:18:22;0.88;;;0.88;;
10902;SDS011;5504;47.312;11.060;2024-02-16T12:20:58;2.03;;;0.95;;
10902;SDS011;5504;47.312;11.060;2024-02-16T12:23:25;2.03;;;0.80;;
10902;SDS011;5504;47.312;11.060;2024-02-16T12:25:50;2.42;;;1.00;;
10902;SDS011;5504;47.312;11.060;2024-02-16T12:28:16;1.63;;;1.00;;
10902;SDS011;5504;47.312;11.060;2024-02-16T12:30:42;1.58;;;0.93;;
10902;SDS011;5504;47.312;11.060;2024-02-16T12:33:08;0.88;;;0.80;;
10902;SDS011;5504;47.312;11.060;2024-02-16T12:35:34;2.00;;;0.88;;
10902;SDS011;5504;47.312;11.060;2024-02-16T12:38:00;0.60;;;0.60;;
10902;SDS011;5504;47.312;11.060;2024-02-16T12:40:25;1.10;;;1.00;;
10902;SDS011;5504;47.312;11.060;2024-02-16T12:42:52;1.92;;;0.85;;
10902;SDS011;5504;47.312;11.060;2024-02-16T12:45:17;1.50;;;0.80;;
10902;SDS011;5504;47.312;11.060;2024-02-16T12:47:44;1.38;;;0.85;;
10902;SDS011;5504;47.312;11.060;2024-02-16T12:50:10;1.52;;;0.90;;
10902;SDS011;5504;47.312;11.060;2024-02-16T12:52:36;2.63;;;0.80;;
10902;SDS011;5504;47.312;11.060;2024-02-16T12:55:03;0.90;;;0.88;;
10902;SDS011;5504;47.312;11.060;2024-02-16T12:57:34;1.55;;;0.90;;
10902;SDS011;5504;47.312;11.060;2024-02-16T13:00:00;1.70;;;0.93;;
10902;SDS011;5504;47.312;11.060;2024-02-16T13:02:27;1.40;;;0.90;;
10902;SDS011;5504;47.312;11.060;2024-02-16T13:04:54;1.20;;;0.88;;
10902;SDS011;5504;47.312;11.060;2024-02-16T13:07:20;1.52;;;1.00;;
10902;SDS011;5504;47.312;11.060;2024-02-16T13:09:46;4.00;;;0.95;;
10902;SDS011;5504;47.312;11.060;2024-02-16T13:12:11;2.25;;;0.90;;
10902;SDS011;5504;47.312;11.060;2024-02-16T13:14:37;1.60;;;0.85;;
10902;SDS011;5504;47.312;11.060;2024-02-16T13:17:03;1.40;;;1.25;;
10902;SDS011;5504;47.312;11.060;2024-02-16T13:19:29;0.93;;;0.75;;
10902;SDS011;5504;47.312;11.060;2024-02-16T13:21:55;1.38;;;1.10;;
10902;SDS011;5504;47.312;11.060;2024-02-16T13:24:20;0.85;;;0.80;;
10902;SDS011;5504;47.312;11.060;2024-02-16T13:26:46;1.10;;;0.82;;
10902;SDS011;5504;47.312;11.060;2024-02-16T13:29:12;1.65;;;1.00;;
10902;SDS011;5504;47.312;11.060;2024-02-16T13:31:38;2.85;;;1.15;;
10902;SDS011;5504;47.312;11.060;2024-02-16T13:34:05;1.27;;;0.80;;
10902;SDS011;5504;47.312;11.060;2024-02-16T13:36:31;0.82;;;0.80;;
10902;SDS011;5504;47.312;11.060;2024-02-16T13:38:57;2.05;;;0.95;;
10902;SDS011;5504;47.312;11.060;2024-02-16T13:41:22;1.02;;;0.90;;
10902;SDS011;5504;47.312;11.060;2024-02-16T13:43:49;0.80;;;0.80;;
10902;SDS011;5504;47.312;11.060;2024-02-16T13:46:16;1.60;;;0.88;;
10902;SDS011;5504;47.312;11.060;2024-02-16T13:48:42;1.60;;;0.90;;
10902;SDS011;5504;47.312;11.060;2024-02-16T13:51:08;1.88;;;0.90;;
10902;SDS011;5504;47.312;11.060;2024-02-16T13:53:37;1.05;;;0.80;;
10902;SDS011;5504;47.312;11.060;2024-02-16T13:56:03;1.70;;;1.10;;
10902;SDS011;5504;47.312;11.060;2024-02-16T13:58:31;2.03;;;1.20;;
10902;SDS011;5504;47.312;11.060;2024-02-16T14:00:57;1.90;;;1.20;;
10902;SDS011;5504;47.312;11.060;2024-02-16T14:03:24;1.02;;;0.93;;
10902;SDS011;5504;47.312;11.060;2024-02-16T14:05:50;1.63;;;1.00;;
10902;SDS011;5504;47.312;11.060;2024-02-16T14:08:17;1.75;;;0.90;;
10902;SDS011;5504;47.312;11.060;2024-02-16T14:10:42;1.55;;;0.77;;
10902;SDS011;5504;47.312;11.060;2024-02-16T14:13:08;2.83;;;0.80;;
10902;SDS011;5504;47.312;11.060;2024-02-16T14:15:34;0.70;;;0.70;;
10902;SDS011;5504;47.312;11.060;2024-02-16T14:18:00;0.80;;;0.80;;
10902;SDS011;5504;47.312;11.060;2024-02-16T14:20:26;1.10;;;0.80;;
10902;SDS011;5504;47.312;11.060;2024-02-16T14:22:52;1.35;;;1.20;;
10902;SDS011;5504;47.312;11.060;2024-02-16T14:25:18;1.80;;;1.70;;
10902;SDS011;5504;47.312;11.060;2024-02-16T14:27:44;1.63;;;1.30;;
10902;SDS011;5504;47.312;11.060;2024-02-16T14:30:10;3.75;;;1.65;;
10902;SDS011;5504;47.312;11.060;2024-02-16T14:32:39;3.13;;;2.20;;
10902;SDS011;5504;47.312;11.060;2024-02-16T14:35:06;3.78;;;3.47;;
10902;SDS011;5504;47.312;11.060;2024-02-16T14:37:32;3.08;;;1.70;;
10902;SDS011;5504;47.312;11.060;2024-02-16T14:39:58;3.15;;;1.60;;
10902;SDS011;5504;47.312;11.060;2024-02-16T14:42:25;2.35;;;1.60;;
10902;SDS011;5504;47.312;11.060;2024-02-16T14:44:51;2.03;;;1.33;;
10902;SDS011;5504;47.312;11.060;2024-02-16T14:47:18;1.80;;;1.30;;
10902;SDS011;5504;47.312;11.060;2024-02-16T14:49:43;2.85;;;1.30;;
10902;SDS011;5504;47.312;11.060;2024-02-16T14:52:09;1.70;;;1.17;;
10902;SDS011;5504;47.312;11.060;2024-02-16T14:54:35;1.30;;;1.15;;